Time;durP1;ratioP1;P1;durP2;ratioP2;P2;SDS_P1;SDS_P2;PMS_P1;PMS_P2;Temp;Humidity;BMP_temperature;BMP_pressure;BME280_temperature;BME280_humidity;BME280_pressure;Samples;Min_cycle;Max_cycle;Signal;HPM_P1;HPM_P2
2021/01/07 00:01:57;;;;;;;16.00;10.13;;;;;;;;;;4994269;28;21228;-76
2021/01/07 00:05:02;;;;;;;15.83;10.87;;;;;;;;;;4983614;28;20597;-75
2021/01/07 00:08:06;;;;;;;16.67;10.47;;;;;;;;;;4993691;28;20630;-75
2021/01/07 00:11:11;;;;;;;15.00;9.70;;;;;;;;;;4976338;28;20582;-75
2021/01/07 00:14:15;;;;;;;15.20;10.53;;;;;;;;;;4975035;28;20585;-75
2021/01/07 00:17:19;;;;;;;15.93;10.87;;;;;;;;;;5006045;28;20597;-75
2021/01/07 00:20:24;;;;;;;18.37;11.67;;;;;;;;;;4980176;28;20645;-75
2021/01/07 00:23:28;;;;;;;17.43;11.07;;;;;;;;;;4980776;28;21175;-76
2021/01/07 00:26:32;;;;;;;18.67;11.70;;;;;;;;;;4975191;28;20598;-75
2021/01/07 00:29:36;;;;;;;17.43;11.73;;;;;;;;;;4981525;28;20641;-76
2021/01/07 00:32:40;;;;;;;18.63;11.23;;;;;;;;;;4983394;28;21064;-75
2021/01/07 00:35:45;;;;;;;18.40;11.30;;;;;;;;;;4986095;28;20578;-75
2021/01/07 00:38:49;;;;;;;17.27;11.67;;;;;;;;;;4986370;28;20891;-76
2021/01/07 00:41:55;;;;;;;19.10;12.23;;;;;;;;;;4980846;28;20658;-76
2021/01/07 00:44:59;;;;;;;17.33;11.77;;;;;;;;;;4989784;28;20597;-76
2021/01/07 00:48:04;;;;;;;17.87;11.63;;;;;;;;;;4994847;28;20558;-75
2021/01/07 00:51:09;;;;;;;18.33;12.17;;;;;;;;;;4981313;28;20589;-75
2021/01/07 00:54:14;;;;;;;18.30;12.07;;;;;;;;;;4994150;28;20582;-75
2021/01/07 00:57:19;;;;;;;17.43;11.97;;;;;;;;;;5004957;28;20597;-76
2021/01/07 01:00:23;;;;;;;19.40;12.53;;;;;;;;;;4996723;28;20648;-76
2021/01/07 01:03:28;;;;;;;17.87;11.90;;;;;;;;;;4985845;28;20630;-76
2021/01/07 01:06:32;;;;;;;19.70;11.73;;;;;;;;;;4974320;28;20551;-75
2021/01/07 01:09:36;;;;;;;17.60;11.10;;;;;;;;;;4980576;28;20649;-76
2021/01/07 01:12:40;;;;;;;18.33;12.30;;;;;;;;;;4993962;28;20593;-76
2021/01/07 01:15:44;;;;;;;17.30;11.27;;;;;;;;;;4994636;28;20605;-76
2021/01/07 01:18:48;;;;;;;17.33;11.83;;;;;;;;;;4971282;28;20628;-76
2021/01/07 01:21:53;;;;;;;17.70;11.63;;;;;;;;;;4974997;28;21163;-76
2021/01/07 01:24:57;;;;;;;15.73;10.77;;;;;;;;;;4981806;28;20601;-76
2021/01/07 01:28:02;;;;;;;17.30;11.30;;;;;;;;;;4993571;28;20625;-75
2021/01/07 01:31:06;;;;;;;15.70;10.87;;;;;;;;;;4976848;28;20646;-75
2021/01/07 01:34:10;;;;;;;16.27;10.50;;;;;;;;;;4963035;28;21140;-76
2021/01/07 01:37:14;;;;;;;17.53;11.47;;;;;;;;;;4992913;28;20593;-76
2021/01/07 01:40:18;;;;;;;15.93;10.53;;;;;;;;;;4997744;28;20648;-76
2021/01/07 01:43:22;;;;;;;16.47;11.30;;;;;;;;;;4991286;28;21190;-76
2021/01/07 01:46:26;;;;;;;16.80;10.63;;;;;;;;;;4991714;28;20565;-76
2021/01/07 01:49:31;;;;;;;16.63;10.67;;;;;;;;;;4989427;28;20649;-76
2021/01/07 01:52:36;;;;;;;15.83;11.03;;;;;;;;;;4984935;28;20587;-76
2021/01/07 01:55:41;;;;;;;16.07;10.70;;;;;;;;;;4974264;28;20587;-76
2021/01/07 01:58:45;;;;;;;14.03;9.60;;;;;;;;;;4980360;28;20593;-76
2021/01/07 02:01:50;;;;;;;16.83;11.37;;;;;;;;;;4981481;28;20590;-76
2021/01/07 02:04:54;;;;;;;16.47;11.13;;;;;;;;;;4980567;28;20574;-75
2021/01/07 02:08:01;;;;;;;16.73;11.13;;;;;;;;;;4974555;28;20542;-76
2021/01/07 02:11:08;;;;;;;17.97;11.83;;;;;;;;;;4989832;28;20653;-75
2021/01/07 02:14:12;;;;;;;16.30;11.23;;;;;;;;;;4993507;28;20573;-76
2021/01/07 02:17:16;;;;;;;19.87;12.13;;;;;;;;;;5004060;28;20593;-76
2021/01/07 02:20:25;;;;;;;15.63;11.27;;;;;;;;;;4983305;28;20645;-76
2021/01/07 02:23:29;;;;;;;18.43;11.30;;;;;;;;;;4976442;28;20625;-76
2021/01/07 02:26:33;;;;;;;17.13;11.43;;;;;;;;;;4991772;28;20618;-75
2021/01/07 02:29:38;;;;;;;17.87;11.70;;;;;;;;;;4987960;28;20657;-76
2021/01/07 02:32:42;;;;;;;16.30;11.43;;;;;;;;;;4975858;28;20617;-75
2021/01/07 02:35:47;;;;;;;17.13;11.40;;;;;;;;;;4973493;28;20535;-76
2021/01/07 02:38:51;;;;;;;17.93;11.57;;;;;;;;;;4983761;28;20589;-76
2021/01/07 02:41:56;;;;;;;16.93;11.47;;;;;;;;;;4995849;28;20906;-75
2021/01/07 02:45:01;;;;;;;17.33;11.57;;;;;;;;;;4990749;28;20570;-75
2021/01/07 02:48:05;;;;;;;18.03;11.50;;;;;;;;;;5000616;28;20598;-76
2021/01/07 02:51:10;;;;;;;17.00;11.77;;;;;;;;;;5003745;28;21069;-75
2021/01/07 02:54:14;;;;;;;18.80;12.00;;;;;;;;;;4985750;28;20586;-75
2021/01/07 02:57:18;;;;;;;16.47;11.47;;;;;;;;;;4973831;28;20594;-75
2021/01/07 03:00:23;;;;;;;16.97;11.60;;;;;;;;;;4974031;28;20626;-75
2021/01/07 03:03:27;;;;;;;18.80;11.93;;;;;;;;;;4973989;28;20637;-76
2021/01/07 03:06:31;;;;;;;15.97;10.93;;;;;;;;;;4977246;28;20602;-76
2021/01/07 03:09:36;;;;;;;18.07;11.87;;;;;;;;;;4993537;28;20650;-75
2021/01/07 03:12:40;;;;;;;16.97;10.90;;;;;;;;;;4976426;28;20582;-76
2021/01/07 03:15:44;;;;;;;17.57;11.00;;;;;;;;;;4996327;28;20569;-75
2021/01/07 03:18:48;;;;;;;17.47;11.90;;;;;;;;;;4995828;28;20585;-75
2021/01/07 03:21:53;;;;;;;14.60;10.77;;;;;;;;;;4995566;28;20608;-76
2021/01/07 03:24:57;;;;;;;16.90;11.37;;;;;;;;;;5006886;28;21155;-75
2021/01/07 03:28:01;;;;;;;17.50;11.27;;;;;;;;;;4995503;28;20601;-75
2021/01/07 03:31:05;;;;;;;16.90;10.70;;;;;;;;;;4976435;28;20649;-75
2021/01/07 03:34:09;;;;;;;15.23;10.50;;;;;;;;;;4987264;28;20958;-75
2021/01/07 03:37:14;;;;;;;16.07;11.00;;;;;;;;;;4976264;28;20543;-75
2021/01/07 03:40:18;;;;;;;15.17;10.87;;;;;;;;;;4988039;28;20645;-75
2021/01/07 03:43:23;;;;;;;17.23;11.27;;;;;;;;;;5004334;28;21183;-75
2021/01/07 03:46:27;;;;;;;15.57;10.97;;;;;;;;;;4976770;28;20546;-75
2021/01/07 03:49:31;;;;;;;15.27;10.80;;;;;;;;;;4976755;28;20649;-75
2021/01/07 03:52:35;;;;;;;17.30;11.47;;;;;;;;;;5006322;28;20593;-75
2021/01/07 03:55:39;;;;;;;15.57;10.90;;;;;;;;;;4990489;28;20582;-75
2021/01/07 03:58:43;;;;;;;14.67;10.13;;;;;;;;;;5000138;28;20582;-75
2021/01/07 04:01:48;;;;;;;14.77;10.70;;;;;;;;;;4980318;28;20598;-75
2021/01/07 04:04:52;;;;;;;15.83;10.23;;;;;;;;;;4975928;28;20586;-75
2021/01/07 04:07:56;;;;;;;14.57;10.50;;;;;;;;;;4975676;28;21079;-75
2021/01/07 04:11:00;;;;;;;13.07;9.27;;;;;;;;;;4976201;28;20625;-75
2021/01/07 04:14:05;;;;;;;14.37;9.93;;;;;;;;;;4985721;28;20589;-75
2021/01/07 04:17:09;;;;;;;14.43;10.17;;;;;;;;;;4995543;28;21174;-75
2021/01/07 04:20:13;;;;;;;14.30;9.53;;;;;;;;;;5005533;28;20656;-75
2021/01/07 04:23:17;;;;;;;14.23;9.63;;;;;;;;;;4989479;28;20653;-75
2021/01/07 04:26:24;;;;;;;13.03;8.83;;;;;;;;;;4986475;28;20546;-75
2021/01/07 04:29:30;;;;;;;13.77;9.67;;;;;;;;;;4975956;28;20626;-75
2021/01/07 04:32:34;;;;;;;13.07;9.70;;;;;;;;;;4978964;28;20581;-75
2021/01/07 04:35:38;;;;;;;15.33;9.57;;;;;;;;;;4975815;28;20586;-75
2021/01/07 04:38:42;;;;;;;12.40;9.30;;;;;;;;;;4980213;28;20589;-75
2021/01/07 04:41:46;;;;;;;13.73;9.73;;;;;;;;;;4983044;28;20546;-75
2021/01/07 04:44:51;;;;;;;14.23;9.53;;;;;;;;;;4977624;28;20630;-75
2021/01/07 04:47:55;;;;;;;12.43;9.27;;;;;;;;;;4963592;28;20558;-75
2021/01/07 04:50:59;;;;;;;15.10;9.13;;;;;;;;;;4986174;28;20653;-75
2021/01/07 04:54:04;;;;;;;14.33;9.53;;;;;;;;;;4978172;28;20610;-75
2021/01/07 04:57:08;;;;;;;15.03;10.47;;;;;;;;;;4986692;28;20626;-75
2021/01/07 05:00:13;;;;;;;13.37;8.77;;;;;;;;;;4977625;28;20644;-75
2021/01/07 05:03:21;;;;;;;13.70;9.27;;;;;;;;;;4978731;28;20649;-75
2021/01/07 05:06:26;;;;;;;13.80;9.37;;;;;;;;;;4994019;28;20542;-76
2021/01/07 05:09:32;;;;;;;11.93;9.17;;;;;;;;;;4982192;28;20644;-75
2021/01/07 05:12:38;;;;;;;13.10;9.30;;;;;;;;;;4981193;28;20629;-76
2021/01/07 05:15:43;;;;;;;12.70;8.97;;;;;;;;;;4963324;28;20598;-75
2021/01/07 05:18:47;;;;;;;13.13;9.13;;;;;;;;;;4973992;28;20618;-76
2021/01/07 05:21:54;;;;;;;13.20;9.20;;;;;;;;;;4975025;28;20638;-76
2021/01/07 05:24:58;;;;;;;12.03;8.80;;;;;;;;;;4963985;28;20630;-76
2021/01/07 05:28:06;;;;;;;13.37;9.10;;;;;;;;;;4996266;28;20616;-76
2021/01/07 05:31:10;;;;;;;13.33;8.63;;;;;;;;;;5004073;28;20542;-76
2021/01/07 05:34:14;;;;;;;12.70;8.87;;;;;;;;;;4998130;23;20702;-78
2021/01/07 05:37:20;;;;;;;13.53;8.77;;;;;;;;;;4961261;28;20590;-77
2021/01/07 05:40:25;;;;;;;13.17;8.80;;;;;;;;;;4975333;28;20642;-79
2021/01/07 05:43:29;;;;;;;11.83;8.60;;;;;;;;;;4945389;28;20634;-80
2021/01/07 05:46:35;;;;;;;15.30;9.03;;;;;;;;;;4973700;28;20633;-80
2021/01/07 05:49:40;;;;;;;12.67;8.97;;;;;;;;;;4979491;28;20657;-78
2021/01/07 05:52:46;;;;;;;11.90;8.80;;;;;;;;;;4969132;28;20597;-78
2021/01/07 05:55:50;;;;;;;12.67;8.90;;;;;;;;;;4961023;28;20592;-78
2021/01/07 05:58:55;;;;;;;12.17;8.67;;;;;;;;;;4980462;28;20559;-78
2021/01/07 06:02:04;;;;;;;11.97;8.73;;;;;;;;;;4949145;29;20627;-78
2021/01/07 06:05:15;;;;;;;13.07;9.60;;;;;;;;;;4951164;29;21232;-79
2021/01/07 06:08:19;;;;;;;13.37;9.30;;;;;;;;;;4972833;28;20556;-80
2021/01/07 06:11:25;;;;;;;18.13;11.87;;;;;;;;;;4948579;29;20559;-79
2021/01/07 06:14:29;;;;;;;14.27;10.03;;;;;;;;;;4970055;28;20590;-77
2021/01/07 06:17:34;;;;;;;17.03;11.00;;;;;;;;;;4946313;29;21125;-78
2021/01/07 06:20:38;;;;;;;15.67;10.10;;;;;;;;;;4946572;29;20665;-80
2021/01/07 06:23:47;;;;;;;14.50;9.77;;;;;;;;;;4972772;28;20642;-78
2021/01/07 06:26:51;;;;;;;12.20;8.77;;;;;;;;;;4949241;29;21205;-78
2021/01/07 06:30:10;;;;;;;12.57;8.93;;;;;;;;;;4957375;28;20627;-78
2021/01/07 06:33:15;;;;;;;14.07;9.47;;;;;;;;;;4974860;28;20610;-78
2021/01/07 06:36:35;;;;;;;13.27;8.67;;;;;;;;;;4967773;28;20591;-78
2021/01/07 06:39:43;;;;;;;68.37;29.67;;;;;;;;;;4944774;28;20626;-78
2021/01/07 06:42:55;;;;;;;12.57;9.00;;;;;;;;;;4957373;28;21187;-78
2021/01/07 06:46:00;;;;;;;17.87;11.63;;;;;;;;;;4968083;28;20578;-77
2021/01/07 06:49:23;;;;;;;23.87;17.10;;;;;;;;;;4967555;28;20632;-77
2021/01/07 06:52:41;;;;;;;14.10;10.30;;;;;;;;;;4967625;28;20547;-77
2021/01/07 06:56:28;;;;;;;11.47;9.03;;;;;;;;;;4956596;28;21159;-77
2021/01/07 06:59:33;;;;;;;12.70;9.70;;;;;;;;;;4963236;28;20642;-77
2021/01/07 07:02:38;;;;;;;12.57;9.23;;;;;;;;;;4968947;28;20625;-77
2021/01/07 07:05:54;;;;;;;14.60;9.47;;;;;;;;;;4978857;28;20645;-78
2021/01/07 07:08:58;;;;;;;13.73;9.80;;;;;;;;;;4968591;28;20551;-78
2021/01/07 07:12:03;;;;;;;12.20;9.10;;;;;;;;;;4953427;29;20587;-78
2021/01/07 07:15:09;;;;;;;15.33;10.27;;;;;;;;;;4948816;29;20891;-78
2021/01/07 07:18:30;;;;;;;14.00;9.70;;;;;;;;;;4961865;29;20555;-77
2021/01/07 07:21:35;;;;;;;14.13;9.13;;;;;;;;;;4949779;29;20599;-79
2021/01/07 07:24:45;;;;;;;13.97;9.57;;;;;;;;;;4949564;29;20935;-79
2021/01/07 07:27:52;;;;;;;17.17;9.63;;;;;;;;;;4938817;29;20552;-79
2021/01/07 07:30:56;;;;;;;20.40;14.87;;;;;;;;;;4964219;28;20630;-78
2021/01/07 07:34:01;;;;;;;14.43;10.53;;;;;;;;;;4961105;28;20630;-78
2021/01/07 07:37:17;;;;;;;23.13;16.93;;;;;;;;;;4962225;29;20555;-78
2021/01/07 07:40:34;;;;;;;16.47;13.07;;;;;;;;;;4949484;28;20626;-78
2021/01/07 07:43:39;;;;;;;20.43;16.80;;;;;;;;;;4975611;28;20622;-78
2021/01/07 07:46:44;;;;;;;17.93;11.03;;;;;;;;;;4977029;28;20594;-78
2021/01/07 07:49:58;;;;;;;17.93;13.57;;;;;;;;;;4939092;29;20622;-78
2021/01/07 07:53:06;;;;;;;21.17;14.43;;;;;;;;;;4950763;29;20543;-79
2021/01/07 07:56:23;;;;;;;24.37;18.00;;;;;;;;;;4974097;28;20621;-79
2021/01/07 07:59:28;;;;;;;17.80;12.30;;;;;;;;;;4969306;28;20642;-78
2021/01/07 08:02:32;;;;;;;33.87;21.50;;;;;;;;;;4982540;28;21113;-78
2021/01/07 08:05:37;;;;;;;24.93;18.13;;;;;;;;;;4969014;28;20622;-79
2021/01/07 08:08:41;;;;;;;34.40;21.50;;;;;;;;;;4966254;28;20594;-78
2021/01/07 08:11:47;;;;;;;59.07;29.63;;;;;;;;;;4961320;28;20599;-78
2021/01/07 08:14:51;;;;;;;41.33;28.10;;;;;;;;;;4983561;28;20543;-79
2021/01/07 08:18:12;;;;;;;30.27;22.53;;;;;;;;;;4968180;28;20598;-78
2021/01/07 08:21:17;;;;;;;23.40;16.00;;;;;;;;;;4973378;28;20595;-78
2021/01/07 08:24:24;;;;;;;23.90;18.13;;;;;;;;;;4973919;28;20610;-80
2021/01/07 08:27:31;;;;;;;19.37;12.63;;;;;;;;;;4973092;28;20891;-77
2021/01/07 08:30:42;;;;;;;21.67;14.63;;;;;;;;;;4967052;29;20623;-78
2021/01/07 08:33:48;;;;;;;17.30;13.00;;;;;;;;;;4967271;28;20637;-79
2021/01/07 08:36:53;;;;;;;18.93;14.13;;;;;;;;;;4986834;28;20542;-79
2021/01/07 08:40:06;;;;;;;17.07;12.57;;;;;;;;;;4966982;28;20619;-78
2021/01/07 08:43:11;;;;;;;21.97;15.63;;;;;;;;;;4957353;29;20547;-79
2021/01/07 08:46:22;;;;;;;17.60;13.10;;;;;;;;;;4957231;29;20658;-78
2021/01/07 08:49:27;;;;;;;15.80;11.50;;;;;;;;;;4974009;28;21247;-80
2021/01/07 08:52:53;;;;;;;19.03;12.73;;;;;;;;;;4963730;28;20883;-78
2021/01/07 08:55:57;;;;;;;21.27;14.63;;;;;;;;;;4964344;29;20560;-78
2021/01/07 08:59:21;;;;;;;17.60;12.47;;;;;;;;;;4976748;28;20598;-79
2021/01/07 09:02:25;;;;;;;21.47;14.80;;;;;;;;;;4972574;28;20567;-79
2021/01/07 09:05:30;;;;;;;19.73;13.90;;;;;;;;;;4983073;28;20590;-77
2021/01/07 09:08:34;;;;;;;20.03;14.90;;;;;;;;;;4952521;29;20595;-78
2021/01/07 09:11:38;;;;;;;21.97;13.30;;;;;;;;;;4951660;29;20599;-79
2021/01/07 09:15:23;;;;;;;21.40;15.07;;;;;;;;;;4963714;29;20540;-78
2021/01/07 09:18:27;;;;;;;19.33;13.53;;;;;;;;;;4974609;28;20602;-79
2021/01/07 09:21:34;;;;;;;20.37;13.77;;;;;;;;;;4974565;28;20539;-78
2021/01/07 09:24:39;;;;;;;20.10;13.67;;;;;;;;;;4962220;28;20630;-78
2021/01/07 09:27:51;;;;;;;19.17;13.50;;;;;;;;;;4982019;28;20599;-78
2021/01/07 09:30:56;;;;;;;27.20;17.77;;;;;;;;;;4963761;28;20971;-78
2021/01/07 09:34:00;;;;;;;26.10;18.90;;;;;;;;;;4969452;28;20630;-78
2021/01/07 09:37:12;;;;;;;19.70;13.47;;;;;;;;;;4968372;28;20951;-80
2021/01/07 09:40:17;;;;;;;19.70;14.37;;;;;;;;;;4958925;28;21006;-78
2021/01/07 09:43:21;;;;;;;17.23;12.77;;;;;;;;;;4953668;29;20552;-79
2021/01/07 09:46:26;;;;;;;19.37;13.27;;;;;;;;;;4953654;29;20595;-79
2021/01/07 09:49:31;;;;;;;17.60;11.83;;;;;;;;;;4972523;28;20653;-79
2021/01/07 09:52:36;;;;;;;20.07;11.87;;;;;;;;;;4958090;29;20603;-78
2021/01/07 09:55:40;;;;;;;18.97;12.57;;;;;;;;;;4960525;29;20551;-79
2021/01/07 09:58:44;;;;;;;19.50;12.23;;;;;;;;;;4972235;28;20539;-79
2021/01/07 10:01:57;;;;;;;18.63;12.40;;;;;;;;;;4951319;28;20626;-78
2021/01/07 10:05:01;;;;;;;18.30;12.37;;;;;;;;;;4960426;28;20599;-79
2021/01/07 10:08:06;;;;;;;18.43;11.77;;;;;;;;;;4960154;29;20556;-79
2021/01/07 10:11:14;;;;;;;19.47;11.97;;;;;;;;;;4970110;29;20559;-79
2021/01/07 10:14:19;;;;;;;15.63;10.90;;;;;;;;;;4959160;29;20547;-79
2021/01/07 10:17:23;;;;;;;17.73;11.50;;;;;;;;;;4963599;29;20547;-79
2021/01/07 10:20:28;;;;;;;18.03;12.03;;;;;;;;;;4974936;28;20638;-78
2021/01/07 10:23:33;;;;;;;17.83;11.90;;;;;;;;;;4966032;29;20599;-78
2021/01/07 10:26:38;;;;;;;17.83;11.97;;;;;;;;;;4969903;28;20618;-79
2021/01/07 10:29:45;;;;;;;26.70;15.93;;;;;;;;;;4968656;28;20638;-78
2021/01/07 10:32:49;;;;;;;69.17;36.43;;;;;;;;;;4967558;29;21158;-78
2021/01/07 10:35:54;;;;;;;238.80;99.70;;;;;;;;;;4971129;28;20602;-78
2021/01/07 10:38:58;;;;;;;122.83;58.27;;;;;;;;;;4965992;28;20553;-78
2021/01/07 10:42:05;;;;;;;36.23;23.93;;;;;;;;;;4961864;29;20560;-79
2021/01/07 10:45:10;;;;;;;23.27;16.43;;;;;;;;;;4960375;29;20595;-79
2021/01/07 10:48:19;;;;;;;19.70;13.07;;;;;;;;;;4971837;28;20595;-78
2021/01/07 10:51:31;;;;;;;16.33;12.63;;;;;;;;;;4989583;28;21101;-78
2021/01/07 10:55:09;;;;;;;18.00;12.03;;;;;;;;;;4964499;29;20606;-78
2021/01/07 10:58:33;;;;;;;18.87;12.10;;;;;;;;;;4958555;28;20578;-78
2021/01/07 11:01:58;;;;;;;19.33;12.53;;;;;;;;;;4938038;29;20560;-79
2021/01/07 11:05:13;;;;;;;19.97;12.87;;;;;;;;;;4960292;29;20908;-78
2021/01/07 11:08:26;;;;;;;24.57;15.20;;;;;;;;;;4956713;28;20602;-78
2021/01/07 11:11:52;;;;;;;18.50;13.13;;;;;;;;;;4967544;28;20546;-78
2021/01/07 11:15:01;;;;;;;22.17;13.27;;;;;;;;;;4967427;28;20590;-78
2021/01/07 11:18:14;;;;;;;19.47;12.73;;;;;;;;;;4962312;28;20591;-80
2021/01/07 11:21:23;;;;;;;18.77;12.23;;;;;;;;;;4961648;29;20602;-80
2021/01/07 11:24:28;;;;;;;20.90;12.93;;;;;;;;;;4937446;29;20636;-80
2021/01/07 11:27:35;;;;;;;20.90;12.70;;;;;;;;;;4936158;29;20551;-80
2021/01/07 11:30:40;;;;;;;17.83;11.73;;;;;;;;;;4947523;29;20665;-80
2021/01/07 11:33:44;;;;;;;18.50;12.13;;;;;;;;;;4947725;28;20211;-79
2021/01/07 11:36:59;;;;;;;17.83;11.50;;;;;;;;;;4965736;28;20586;-80
2021/01/07 11:40:11;;;;;;;17.90;11.53;;;;;;;;;;4977261;28;20215;-79
2021/01/07 11:43:39;;;;;;;19.13;11.53;;;;;;;;;;4954939;28;20580;-80
2021/01/07 11:46:48;;;;;;;19.43;11.80;;;;;;;;;;4975752;28;20625;-79
2021/01/07 11:49:55;;;;;;;18.40;12.70;;;;;;;;;;4966203;28;20718;-79
2021/01/07 11:53:00;;;;;;;19.00;12.40;;;;;;;;;;4965972;28;20542;-80
2021/01/07 11:56:04;;;;;;;20.50;12.07;;;;;;;;;;4953994;28;20591;-79
2021/01/07 11:59:09;;;;;;;17.00;12.13;;;;;;;;;;4967353;28;20649;-79
2021/01/07 12:02:14;;;;;;;21.83;13.77;;;;;;;;;;4970491;28;20595;-79
2021/01/07 12:05:22;;;;;;;18.83;11.60;;;;;;;;;;4948102;28;20540;-78
2021/01/07 12:08:39;;;;;;;18.37;11.90;;;;;;;;;;4938529;28;20599;-79
2021/01/07 12:12:03;;;;;;;24.93;13.80;;;;;;;;;;4949212;29;20552;-79
2021/01/07 12:15:12;;;;;;;22.37;13.53;;;;;;;;;;4972630;28;20594;-79
2021/01/07 12:18:17;;;;;;;24.80;14.40;;;;;;;;;;4965800;28;20598;-78
2021/01/07 12:21:21;;;;;;;34.80;18.40;;;;;;;;;;4957661;28;20583;-78
2021/01/07 12:24:29;;;;;;;25.50;14.30;;;;;;;;;;5007198;23;20677;-79
2021/01/07 12:27:35;;;;;;;18.33;12.50;;;;;;;;;;5011823;28;21206;-80
2021/01/07 12:30:43;;;;;;;19.67;12.77;;;;;;;;;;5011696;28;20625;-80
2021/01/07 12:34:07;;;;;;;20.93;12.53;;;;;;;;;;4993540;28;20590;-79
2021/01/07 12:37:14;;;;;;;19.53;12.73;;;;;;;;;;4977722;28;20946;-80
2021/01/07 12:40:19;;;;;;;19.37;11.83;;;;;;;;;;4959300;28;20649;-80
2021/01/07 12:43:27;;;;;;;21.83;12.73;;;;;;;;;;4972581;28;21191;-79
2021/01/07 12:46:37;;;;;;;19.37;12.87;;;;;;;;;;4968360;28;20610;-79
2021/01/07 12:49:44;;;;;;;19.40;12.57;;;;;;;;;;4962929;28;20627;-78
2021/01/07 12:52:49;;;;;;;20.47;12.97;;;;;;;;;;4977689;28;21159;-79
2021/01/07 12:55:56;;;;;;;19.50;13.00;;;;;;;;;;4964304;29;20543;-78
2021/01/07 12:59:09;;;;;;;21.90;14.53;;;;;;;;;;4990907;28;20586;-78
2021/01/07 13:02:18;;;;;;;48.27;25.57;;;;;;;;;;4976603;28;20966;-77
2021/01/07 13:05:29;;;;;;;30.13;17.47;;;;;;;;;;4965887;28;20594;-77
2021/01/07 13:08:40;;;;;;;27.17;16.70;;;;;;;;;;4988022;28;20594;-77
2021/01/07 13:11:45;;;;;;;25.00;14.93;;;;;;;;;;4988452;28;20582;-76
2021/01/07 13:14:50;;;;;;;25.93;15.10;;;;;;;;;;4966343;28;20573;-77
2021/01/07 13:17:54;;;;;;;29.83;17.10;;;;;;;;;;4993505;28;20545;-76
2021/01/07 13:20:58;;;;;;;24.27;15.30;;;;;;;;;;4955473;29;20971;-76
2021/01/07 13:24:04;;;;;;;27.23;16.37;;;;;;;;;;4955535;29;20610;-76
2021/01/07 13:27:09;;;;;;;27.70;16.47;;;;;;;;;;4954676;29;20603;-76
2021/01/07 13:30:15;;;;;;;29.07;16.60;;;;;;;;;;4964007;28;20650;-76
2021/01/07 13:33:21;;;;;;;27.37;16.70;;;;;;;;;;4962693;28;20594;-75
2021/01/07 13:36:28;;;;;;;27.43;16.30;;;;;;;;;;4992063;28;20594;-75
2021/01/07 13:39:33;;;;;;;28.77;15.47;;;;;;;;;;4991183;28;20641;-74
2021/01/07 13:42:39;;;;;;;26.30;15.63;;;;;;;;;;4978381;28;20590;-74
2021/01/07 13:45:43;;;;;;;28.63;16.80;;;;;;;;;;4982553;28;20594;-74
2021/01/07 13:48:57;;;;;;;27.93;16.13;;;;;;;;;;4994232;28;20546;-75
2021/01/07 13:52:05;;;;;;;34.43;20.37;;;;;;;;;;4981796;28;20545;-76
2021/01/07 13:55:10;;;;;;;24.60;15.40;;;;;;;;;;4993840;28;20554;-74
2021/01/07 13:58:15;;;;;;;24.20;14.63;;;;;;;;;;4968980;28;20573;-73
2021/01/07 14:01:20;;;;;;;23.83;14.60;;;;;;;;;;4989178;28;20966;-73
2021/01/07 14:04:24;;;;;;;24.53;14.90;;;;;;;;;;4973597;28;20598;-72
2021/01/07 14:07:50;;;;;;;25.60;15.80;;;;;;;;;;4973460;28;20598;-72
2021/01/07 14:10:57;;;;;;;38.17;21.23;;;;;;;;;;4993547;28;20621;-73
2021/01/07 14:14:07;;;;;;;29.90;17.03;;;;;;;;;;4981351;28;20958;-71
2021/01/07 14:17:11;;;;;;;26.53;15.43;;;;;;;;;;4954046;29;20544;-72
2021/01/07 14:20:16;;;;;;;25.07;15.27;;;;;;;;;;4969840;28;20653;-73
2021/01/07 14:23:21;;;;;;;23.23;14.80;;;;;;;;;;4960603;28;20974;-73
2021/01/07 14:26:26;;;;;;;23.90;15.03;;;;;;;;;;4956574;28;20651;-73
2021/01/07 14:29:34;;;;;;;23.77;14.73;;;;;;;;;;4974099;28;20637;-74
2021/01/07 14:32:39;;;;;;;24.90;14.93;;;;;;;;;;4954014;29;20544;-74
2021/01/07 14:35:45;;;;;;;25.47;15.63;;;;;;;;;;4954720;29;20556;-73
2021/01/07 14:38:52;;;;;;;24.93;14.90;;;;;;;;;;4986015;28;20917;-72
2021/01/07 14:41:56;;;;;;;23.73;13.77;;;;;;;;;;4992162;28;20601;-71
2021/01/07 14:45:01;;;;;;;24.33;14.70;;;;;;;;;;4973301;28;20598;-70
2021/01/07 14:48:07;;;;;;;22.03;13.27;;;;;;;;;;4972997;28;20603;-70
2021/01/07 14:51:15;;;;;;;22.90;13.40;;;;;;;;;;4979457;28;20589;-69
2021/01/07 14:54:20;;;;;;;22.80;14.00;;;;;;;;;;4954740;29;20535;-72
2021/01/07 15:00:52;;;;;;;22.50;13.77;;;;;;;;;;5131123;24;21262;-86
2021/01/07 15:04:02;;;;;;;29.43;17.33;;;;;;;;;;4825960;29;20605;-87
2021/01/07 15:07:17;;;;;;;59.37;33.27;;;;;;;;;;4807283;29;20610;-86
2021/01/07 15:10:24;;;;;;;33.17;20.17;;;;;;;;;;4795801;29;21252;-86
2021/01/07 15:13:45;;;;;;;29.33;17.77;;;;;;;;;;4795141;29;20590;-87
2021/01/07 15:17:02;;;;;;;28.10;15.17;;;;;;;;;;4809601;29;20606;-89
2021/01/07 15:20:11;;;;;;;37.17;15.87;;;;;;;;;;4797938;29;20658;-85
2021/01/07 15:23:42;;;;;;;25.83;14.27;;;;;;;;;;4798291;29;20598;-83
2021/01/07 15:26:46;;;;;;;20.63;13.73;;;;;;;;;;4808468;29;20645;-85
2021/01/07 15:29:53;;;;;;;27.47;16.03;;;;;;;;;;4808601;29;20630;-85
2021/01/07 15:33:09;;;;;;;29.00;18.03;;;;;;;;;;4808362;29;20547;-89
2021/01/07 15:36:38;;;;;;;27.00;17.10;;;;;;;;;;4780012;30;20198;-87
2021/01/07 15:40:08;;;;;;;26.20;16.27;;;;;;;;;;4772195;29;20630;-89
2021/01/07 15:44:09;;;;;;;25.00;14.90;;;;;;;;;;4798216;29;20594;-89
2021/01/07 15:47:16;;;;;;;20.63;13.60;;;;;;;;;;4771098;30;20628;-88
2021/01/07 15:50:26;;;;;;;20.07;13.37;;;;;;;;;;4770673;30;20659;-89
2021/01/07 15:53:46;;;;;;;22.67;14.03;;;;;;;;;;4799239;29;20551;-88
2021/01/07 15:57:05;;;;;;;23.20;13.97;;;;;;;;;;4799471;29;20606;-86
2021/01/07 16:00:10;;;;;;;26.07;15.13;;;;;;;;;;4797743;29;20634;-87
2021/01/07 16:03:45;;;;;;;24.87;16.07;;;;;;;;;;4779851;30;20630;-89
2021/01/07 16:07:14;;;;;;;26.27;14.97;;;;;;;;;;4801249;29;20603;-88
2021/01/07 16:10:18;;;;;;;22.57;14.17;;;;;;;;;;4780090;30;20631;-88
2021/01/07 16:13:23;;;;;;;24.47;14.90;;;;;;;;;;4796959;29;20630;-90
2021/01/07 16:16:27;;;;;;;21.70;13.47;;;;;;;;;;4807514;29;20566;-89
2021/01/07 16:19:32;;;;;;;26.07;14.60;;;;;;;;;;4798417;29;20646;-86
2021/01/07 16:22:42;;;;;;;25.43;15.07;;;;;;;;;;4798302;29;20614;-86
2021/01/07 16:25:50;;;;;;;26.87;16.43;;;;;;;;;;4797877;29;20606;-86
2021/01/07 16:28:54;;;;;;;29.23;16.93;;;;;;;;;;4804499;29;20643;-86
2021/01/07 16:32:00;;;;;;;32.47;20.57;;;;;;;;;;4797627;29;20594;-86
2021/01/07 16:35:05;;;;;;;30.60;18.80;;;;;;;;;;4798438;29;20550;-85
2021/01/07 16:38:13;;;;;;;30.30;18.03;;;;;;;;;;4819312;29;20550;-86
2021/01/07 16:41:18;;;;;;;32.93;22.13;;;;;;;;;;4798280;29;20602;-86
2021/01/07 16:44:22;;;;;;;30.13;20.43;;;;;;;;;;4798284;29;20602;-85
2021/01/07 16:47:27;;;;;;;32.10;16.90;;;;;;;;;;4798138;29;20669;-85
2021/01/07 16:50:31;;;;;;;24.23;14.80;;;;;;;;;;4797936;29;20642;-85
2021/01/07 16:53:35;;;;;;;24.17;14.67;;;;;;;;;;4798479;29;20610;-85
2021/01/07 16:56:44;;;;;;;26.97;15.20;;;;;;;;;;4810812;29;21169;-86
2021/01/07 16:59:48;;;;;;;28.10;15.63;;;;;;;;;;4792985;29;20661;-84
2021/01/07 17:02:52;;;;;;;24.03;14.70;;;;;;;;;;4789410;30;20635;-84
2021/01/07 17:05:57;;;;;;;26.80;14.30;;;;;;;;;;4773698;29;20598;-84
2021/01/07 17:09:01;;;;;;;26.30;14.83;;;;;;;;;;4797367;29;20638;-84
2021/01/07 17:12:06;;;;;;;23.13;14.20;;;;;;;;;;4797284;29;20551;-83
2021/01/07 17:15:11;;;;;;;24.07;13.60;;;;;;;;;;4807570;29;20562;-83
2021/01/07 17:18:15;;;;;;;22.13;13.30;;;;;;;;;;4807207;29;20555;-83
2021/01/07 17:21:20;;;;;;;25.47;14.50;;;;;;;;;;4796735;29;20599;-84
2021/01/07 17:24:24;;;;;;;21.20;12.63;;;;;;;;;;4807277;29;20614;-83
2021/01/07 17:27:28;;;;;;;23.93;14.60;;;;;;;;;;4796204;29;20967;-83
2021/01/07 17:30:33;;;;;;;20.63;12.93;;;;;;;;;;4796103;29;20658;-83
2021/01/07 17:33:37;;;;;;;23.50;13.77;;;;;;;;;;4796395;29;20602;-82
2021/01/07 17:36:42;;;;;;;22.47;13.53;;;;;;;;;;4795909;29;21173;-83
2021/01/07 17:39:46;;;;;;;22.20;13.50;;;;;;;;;;4778417;29;20643;-83
2021/01/07 17:42:50;;;;;;;18.97;11.93;;;;;;;;;;4817124;29;20594;-82
2021/01/07 17:45:54;;;;;;;21.73;13.27;;;;;;;;;;4795830;29;20610;-83
2021/01/07 17:48:59;;;;;;;20.63;11.90;;;;;;;;;;4788047;29;20634;-81
2021/01/07 17:52:08;;;;;;;23.00;13.27;;;;;;;;;;4816545;29;20607;-83
2021/01/07 17:55:13;;;;;;;23.63;13.70;;;;;;;;;;4788957;29;20594;-84
2021/01/07 17:58:17;;;;;;;21.10;12.67;;;;;;;;;;4806188;29;20962;-84
2021/01/07 18:01:29;;;;;;;20.87;13.17;;;;;;;;;;4806190;29;20981;-85
2021/01/07 18:04:35;;;;;;;19.70;13.00;;;;;;;;;;4795801;29;20935;-83
2021/01/07 18:07:39;;;;;;;22.10;13.40;;;;;;;;;;4795387;29;20661;-84
2021/01/07 18:10:46;;;;;;;21.73;12.80;;;;;;;;;;4816945;29;20641;-84
2021/01/07 18:13:50;;;;;;;19.13;11.50;;;;;;;;;;4800383;29;20637;-83
2021/01/07 18:16:55;;;;;;;20.43;12.73;;;;;;;;;;4795519;29;20567;-83